Terminal Aerodrome Forecast
Issued by NWS Northern Indiana

Home | Current Version | Previous Version | Text Only | Print | Product List | Glossary Off
Versions: 1 2 3 4 5 6 7 8 9 10 11 12 13

000
FTUS43 KIWX 311100
TAFFWA
TAF
KFWA 311120Z 3112/0112 05015G25KT 3SM RA BR BKN007 OVC015
     FM311500 04014G21KT 6SM -SHRA BR OVC012
     FM010000 03012KT P6SM OVC015
     FM010600 03010KT P6SM BKN030=

USA.gov is the U.S. government's official web portal to all federal, state and local government web resources and services.